Flight Track Log - Related Links

Times and Time Zones

All times are in EDT time to prevent confusion due to time zone crossing. See the LT912 flight status page for this flight to view local times or setup timezone preferences in your user account.

Time Position Orientation Groundspeed Altitude Reporting Facility
EDT Latitude Longitude Course Direction KTS MPH feet Rate Location/Type
Wed 05:17:32 AM 53.3000 -113.5833 22° Northeast 130 150 2,800  Level Edmonton Center
Wed 05:18:32 AM 53.3500 -113.5667 11° North 160 184 4,300 1,650 Climbing Edmonton Center
Wed 05:19:32 AM 53.3833 -113.5500 17° North 160 184 6,100 1,650 Climbing Edmonton Center
Wed 05:20:32 AM 53.4167 -113.5000 42° Northeast 170 196 7,600 1,600 Climbing Edmonton Center
Wed 05:21:32 AM 53.4667 -113.4833 11° North 180 207 9,300 1,700 Climbing Edmonton Center
Wed 05:22:32 AM 53.5167 -113.4333 31° Northeast 160 184 11,000 1,600 Climbing Edmonton Center
Wed 05:23:00 AM 53.7414 -113.2840 22° Northeast  Level FlightAware Approximate
Wed 05:23:32 AM 53.5500 -113.4000 31° Northeast 160 184 12,500  Level Edmonton Center
Wed 05:24:32 AM 53.6000 -113.3667 22° Northeast 170 196 13,900 1,350 Climbing Edmonton Center
Wed 05:25:32 AM 53.6333 -113.3333 31° Northeast 170 196 15,200 1,350 Climbing Edmonton Center
Wed 05:26:32 AM 53.7000 -113.3000 16° North 180 207 16,600 1,250 Climbing Edmonton Center
Wed 05:27:32 AM 53.7500 -113.2833 11° North 180 207 17,700 1,050 Climbing Edmonton Center
Wed 05:28:32 AM 53.7833 -113.2333 42° Northeast 190 219 18,700 1,050 Climbing Edmonton Center
Wed 05:29:32 AM 53.8333 -113.2000 21° North 190 219 19,800 1,000 Climbing Edmonton Center
Wed 05:30:32 AM 53.8833 -113.1667 21° North 190 219 20,700 600 Climbing Edmonton Center
Wed 05:31:32 AM 53.9500 -113.1167 24° Northeast 210 242 21,000 150 Climbing Edmonton Center
Wed 05:32:32 AM 54.0000 -113.0667 30° Northeast 240 276 21,000  Level Edmonton Center
Wed 05:33:32 AM 54.0667 -113.0167 24° Northeast 250 288 21,000  Level Edmonton Center
Wed 05:34:32 AM 54.1167 -112.9833 21° North 250 288 21,000  Level Edmonton Center
Wed 05:35:32 AM 54.2000 -112.9000 30° Northeast 260 299 21,000  Level Edmonton Center
Wed 05:36:32 AM 54.2500 -112.8500 30° Northeast 260 299 21,000  Level Edmonton Center
Wed 05:37:32 AM 54.3167 -112.8167 16° North 260 299 21,000  Level Edmonton Center
Wed 05:38:32 AM 54.4000 -112.7667 19° North 260 299 21,000  Level Edmonton Center
Wed 05:39:32 AM 54.4500 -112.7000 38° Northeast 260 299 21,000  Level Edmonton Center
Wed 05:40:32 AM 54.5167 -112.6500 24° Northeast 260 299 21,000  Level Edmonton Center
Wed 05:41:32 AM 54.5833 -112.6000 23° Northeast 260 299 21,000  Level Edmonton Center
Wed 05:42:32 AM 54.6500 -112.5500 23° Northeast 260 299 21,000  Level Edmonton Center
Wed 05:43:32 AM 54.7167 -112.4833 30° Northeast 260 299 21,000  Level Edmonton Center
Wed 05:44:32 AM 54.7833 -112.4333 23° Northeast 260 299 21,000  Level Edmonton Center
Wed 05:45:32 AM 54.8500 -112.3833 23° Northeast 260 299 21,000  Level Edmonton Center
Wed 05:46:32 AM 54.9167 -112.3333 23° Northeast 260 299 21,000  Level Edmonton Center
Wed 05:47:32 AM 54.9833 -112.2667 30° Northeast 260 299 21,000  Level Edmonton Center
Wed 05:48:32 AM 55.0333 -112.2167 30° Northeast 260 299 21,000  Level Edmonton Center
Wed 05:49:32 AM 55.1167 -112.1667 19° North 260 299 21,000  Level Edmonton Center
Wed 05:50:32 AM 55.1833 -112.1500 North 250 288 21,000  Level Edmonton Center
Wed 05:51:32 AM 55.2500 -112.1000 23° Northeast 250 288 21,000  Level Edmonton Center
Wed 05:52:32 AM 55.3167 -112.0667 16° North 250 288 21,000  Level Edmonton Center
Wed 05:53:32 AM 55.3833 -112.0500 North 250 288 21,000  Level Edmonton Center
Wed 05:54:32 AM 55.4500 -112.0000 23° Northeast 250 288 21,000  Level Edmonton Center
Wed 05:55:32 AM 55.5167 -111.9667 16° North 250 288 21,000  Level Edmonton Center
Wed 05:56:32 AM 55.5833 -111.9333 16° North 250 288 21,000  Level Edmonton Center
Wed 05:57:32 AM 55.6500 -111.8833 23° Northeast 250 288 21,000 -300 Level Edmonton Center
Wed 05:58:32 AM 55.7333 -111.8667 North 250 288 20,400 -850 Descending Edmonton Center
Wed 05:59:32 AM 55.8000 -111.8167 23° Northeast 270 311 19,300 -1,200 Descending Edmonton Center
Wed 06:00:32 AM 55.8667 -111.7667 23° Northeast 280 322 18,000 -1,400 Descending Edmonton Center
Wed 06:01:32 AM 55.9500 -111.7167 19° North 290 334 16,500 -1,650 Descending Edmonton Center
Wed 06:02:32 AM 56.0167 -111.6667 23° Northeast 280 322 14,700 -1,750 Descending Edmonton Center
Wed 06:03:32 AM 56.1000 -111.6500 North 280 322 13,000 -1,650 Descending Edmonton Center
Wed 06:04:32 AM 56.1667 -111.6000 23° Northeast 270 311 11,400 -1,750 Descending Edmonton Center
Wed 06:05:32 AM 56.2333 -111.5500 23° Northeast 260 299 9,500 -1,700 Descending Edmonton Center
Wed 06:06:32 AM 56.3000 -111.5333 North 260 299 8,000 -1,600 Descending Edmonton Center
Wed 06:07:32 AM 56.3833 -111.4833 18° North 260 299 6,300 -1,600 Descending Edmonton Center
Wed 06:08:32 AM 56.4500 -111.4333 23° Northeast 260 299 4,800 -1,400 Descending Edmonton Center
Wed 06:09:32 AM 56.5167 -111.4167 North 230 265 3,500 -1,050 Descending Edmonton Center
Wed 06:10:32 AM 56.5667 -111.4000 10° North 210 242 2,700 -550 Descending Edmonton Center
Wed 06:11:32 AM 56.6000 -111.3833 15° North 180 207 2,400 -500 Descending Edmonton Center
Wed 06:12:32 AM 56.6333 -111.3167 48° Northeast 130 150 1,700 -550 Descending Edmonton Center
Wed 06:13:32 AM 56.6500 -111.2667 59° Northeast 110 127 1,300 -250 Descending Edmonton Center
Wed 06:14:32 AM 56.6333 -111.2333 132° Southeast 70 81 1,200 -100 Descending Edmonton Center

Login

Don't have an account? Register now (free) for customized features, flight alerts, and more!